Time;durP1;ratioP1;P1;durP2;ratioP2;P2;SDS_P1;SDS_P2;PMS_P1;PMS_P2;Temp;Humidity;BMP_temperature;BMP_pressure;BME280_temperature;BME280_humidity;BME280_pressure;Samples;Min_cycle;Max_cycle;Signal;HPM_P1;HPM_P2
2021/01/30 00:01:32;0.00;0.00;0.62;0.00;0.00;0.62;1.63;1.10;;;20.80;28.30;;;;;;2257372;61;20403;-60
2021/01/30 00:04:16;0.00;0.00;0.62;0.00;0.00;0.62;2.33;1.13;;;20.80;28.30;;;;;;2257431;61;20406;-62
2021/01/30 00:07:04;0.00;0.00;0.62;0.00;0.00;0.62;2.60;1.17;;;20.80;28.30;;;;;;2256953;61;20414;-61
2021/01/30 00:09:49;0.00;0.00;0.62;0.00;0.00;0.62;1.83;0.90;;;20.80;28.40;;;;;;2257538;61;20359;-61
2021/01/30 00:12:34;0.00;0.00;0.62;0.00;0.00;0.62;1.90;1.10;;;20.80;28.40;;;;;;2257584;61;20629;-61
2021/01/30 00:15:22;0.00;0.00;0.62;0.00;0.00;0.62;2.03;1.17;;;20.80;28.30;;;;;;2257451;61;20436;-62
2021/01/30 00:18:07;0.00;0.00;0.62;0.00;0.00;0.62;1.80;1.10;;;20.90;28.40;;;;;;2257171;61;20371;-62
2021/01/30 00:20:52;0.00;0.00;0.62;0.00;0.00;0.62;6.13;1.23;;;20.90;28.40;;;;;;2257154;61;20571;-62
2021/01/30 00:23:38;0.00;0.00;0.62;0.00;0.00;0.62;6.60;1.03;;;20.90;28.40;;;;;;2257743;61;20690;-62
2021/01/30 00:26:22;0.00;0.00;0.62;0.00;0.00;0.62;3.40;1.20;;;20.90;28.30;;;;;;2257788;61;20785;-62
2021/01/30 00:29:07;0.00;0.00;0.62;0.00;0.00;0.62;2.77;0.70;;;20.90;28.30;;;;;;2257311;61;20386;-62
2021/01/30 00:31:52;0.00;0.00;0.62;0.00;0.00;0.62;3.00;1.00;;;20.90;28.30;;;;;;2257354;61;20359;-62
2021/01/30 00:34:38;0.00;0.00;0.62;0.00;0.00;0.62;2.40;1.20;;;20.90;28.30;;;;;;2256529;61;20428;-62
2021/01/30 00:37:25;0.00;0.00;0.62;0.00;0.00;0.62;1.93;1.00;;;20.90;28.30;;;;;;2257227;61;20383;-62
2021/01/30 00:40:11;0.00;0.00;0.62;0.00;0.00;0.62;7.50;1.10;;;20.90;28.30;;;;;;2257299;61;20391;-62
2021/01/30 00:42:56;0.00;0.00;0.62;0.00;0.00;0.62;1.33;0.83;;;20.90;28.30;;;;;;2256514;61;20715;-62
2021/01/30 00:45:41;0.00;0.00;0.62;0.00;0.00;0.62;1.57;0.80;;;20.90;28.30;;;;;;2257130;61;20419;-63
2021/01/30 00:48:25;0.00;0.00;0.62;0.00;0.00;0.62;2.37;1.13;;;20.90;28.30;;;;;;2257416;61;20630;-62
2021/01/30 00:51:10;0.00;0.00;0.62;0.00;0.00;0.62;2.97;0.90;;;20.90;28.30;;;;;;2256353;61;20356;-62
2021/01/30 00:53:55;0.00;0.00;0.62;0.00;0.00;0.62;1.90;0.80;;;20.90;28.30;;;;;;2256689;61;20355;-62
2021/01/30 00:56:40;0.00;0.00;0.62;0.00;0.00;0.62;1.80;0.90;;;20.90;28.30;;;;;;2256689;61;20379;-62
2021/01/30 00:59:25;0.00;0.00;0.62;0.00;0.00;0.62;4.80;1.30;;;20.90;28.30;;;;;;2256142;61;20379;-62
2021/01/30 01:02:11;0.00;0.00;0.62;0.00;0.00;0.62;1.77;1.10;;;20.90;28.20;;;;;;2253498;61;20576;-62
2021/01/30 01:05:05;0.00;0.00;0.62;0.00;0.00;0.62;5.73;1.30;;;20.90;28.00;;;;;;2252687;61;20423;-62
2021/01/30 01:07:49;0.00;0.00;0.62;0.00;0.00;0.62;1.77;1.10;;;20.90;28.00;;;;;;2253617;61;20587;-61
2021/01/30 01:10:34;0.00;0.00;0.62;0.00;0.00;0.62;1.57;1.13;;;20.90;28.00;;;;;;2254271;61;20587;-62
2021/01/30 01:13:20;0.00;0.00;0.62;0.00;0.00;0.62;2.53;0.90;;;20.90;28.00;;;;;;2253231;61;20356;-61
2021/01/30 01:16:05;0.00;0.00;0.62;0.00;0.00;0.62;1.33;0.93;;;20.90;28.00;;;;;;2253703;61;20383;-62
2021/01/30 01:18:50;0.00;0.00;0.62;0.00;0.00;0.62;1.73;1.10;;;20.90;28.00;;;;;;2253627;61;20487;-62
2021/01/30 01:21:34;0.00;0.00;0.62;0.00;0.00;0.62;3.00;1.10;;;20.90;28.00;;;;;;2252950;61;20396;-62
2021/01/30 01:24:21;0.00;0.00;0.62;0.00;0.00;0.62;1.40;0.80;;;20.90;28.00;;;;;;2253472;61;20364;-62
2021/01/30 01:27:06;0.00;0.00;0.62;0.00;0.00;0.62;1.90;1.00;;;20.80;28.00;;;;;;2253497;61;20384;-62
2021/01/30 01:29:51;0.00;0.00;0.62;0.00;0.00;0.62;1.50;1.00;;;20.80;28.00;;;;;;2253923;61;20356;-62
2021/01/30 01:32:36;0.00;0.00;0.62;0.00;0.00;0.62;2.17;0.80;;;20.80;28.00;;;;;;2254096;61;20360;-62
2021/01/30 01:35:31;0.00;0.00;0.62;0.00;0.00;0.62;2.33;1.10;;;20.80;28.00;;;;;;2253015;61;20360;-62
2021/01/30 01:38:15;0.00;0.00;0.62;0.00;0.00;0.62;1.37;0.90;;;20.80;28.00;;;;;;2253574;61;20395;-63
2021/01/30 01:41:01;0.00;0.00;0.62;0.00;0.00;0.62;1.20;0.90;;;20.80;28.00;;;;;;2253857;61;20380;-62
2021/01/30 01:43:49;0.00;0.00;0.62;0.00;0.00;0.62;1.23;0.80;;;20.80;28.00;;;;;;2253330;61;20376;-62
2021/01/30 01:46:39;0.00;0.00;0.62;0.00;0.00;0.62;2.43;0.90;;;20.90;28.10;;;;;;2253615;61;20512;-62
2021/01/30 01:49:33;0.00;0.00;0.62;0.00;0.00;0.62;1.40;0.90;;;20.90;28.10;;;;;;2253184;61;20353;-62
2021/01/30 01:52:26;0.00;0.00;0.62;0.00;0.00;0.62;4.03;0.90;;;20.90;28.10;;;;;;2253522;61;20361;-62
2021/01/30 01:55:16;0.00;0.00;0.62;0.00;0.00;0.62;2.17;1.10;;;20.80;28.00;;;;;;2253689;61;20440;-62
2021/01/30 01:58:03;0.00;0.00;0.62;0.00;0.00;0.62;1.67;0.90;;;20.90;28.10;;;;;;2253154;61;20361;-62
2021/01/30 02:00:49;0.00;0.00;0.62;0.00;0.00;0.62;1.90;0.90;;;20.90;28.00;;;;;;2257341;61;20395;-62
2021/01/30 02:03:36;0.00;0.00;0.62;0.00;0.00;0.62;2.03;0.90;;;20.90;28.00;;;;;;2257724;61;20363;-62
2021/01/30 02:06:21;0.00;0.00;0.62;0.00;0.00;0.62;1.70;0.90;;;20.80;27.90;;;;;;2257501;61;20759;-62
2021/01/30 02:09:09;0.00;0.00;0.62;0.00;0.00;0.62;2.90;1.00;;;20.90;28.00;;;;;;2257788;61;20731;-62
2021/01/30 02:12:04;0.00;0.00;0.62;0.00;0.00;0.62;1.33;0.80;;;20.90;28.00;;;;;;2256740;61;20415;-62
2021/01/30 02:14:53;0.00;0.00;0.62;0.00;0.00;0.62;1.20;0.70;;;20.90;28.00;;;;;;2259865;61;20375;-62
2021/01/30 02:17:48;0.00;0.00;0.62;0.00;0.00;0.62;1.97;0.73;;;20.90;28.00;;;;;;2258090;61;20391;-62
2021/01/30 02:21:45;0.00;0.00;0.62;0.00;0.00;0.62;1.20;0.80;;;20.80;27.90;;;;;;2257403;61;20495;-62
2021/01/30 02:25:11;0.00;0.00;0.62;0.00;0.00;0.62;1.40;0.90;;;20.80;27.90;;;;;;2253959;61;20411;-62
2021/01/30 02:28:08;0.00;0.00;0.62;0.00;0.00;0.62;1.37;0.90;;;20.80;28.00;;;;;;2253400;61;20388;-62
2021/01/30 02:31:47;0.00;0.00;0.62;0.00;0.00;0.62;1.30;0.90;;;20.80;28.00;;;;;;2253855;61;20353;-62
2021/01/30 02:35:06;0.00;0.00;0.62;0.00;0.00;0.62;1.50;0.80;;;20.80;28.00;;;;;;2240503;61;20419;-62
2021/01/30 02:37:59;0.00;0.00;0.62;0.00;0.00;0.62;1.30;0.90;;;20.80;27.90;;;;;;2253600;61;20360;-62
2021/01/30 02:40:50;0.00;0.00;0.62;0.00;0.00;0.62;1.47;1.07;;;20.80;27.80;;;;;;2253179;61;20387;-62
2021/01/30 02:43:40;0.00;0.00;0.62;0.00;0.00;0.62;2.47;1.10;;;20.80;27.70;;;;;;2253870;61;20399;-63
2021/01/30 02:46:32;0.00;0.00;0.62;0.00;0.00;0.62;2.43;0.93;;;20.80;27.70;;;;;;2253755;61;20408;-61
2021/01/30 02:49:24;0.00;0.00;0.62;0.00;0.00;0.62;1.70;1.00;;;20.80;27.70;;;;;;2252896;61;20368;-61
2021/01/30 02:52:14;0.00;0.00;0.62;0.00;0.00;0.62;1.30;0.80;;;20.80;27.60;;;;;;2253419;61;20360;-62
2021/01/30 02:55:01;0.00;0.00;0.62;0.00;0.00;0.62;1.37;0.93;;;20.80;27.60;;;;;;2253295;61;20437;-63
2021/01/30 02:57:47;0.00;0.00;0.62;0.00;0.00;0.62;1.73;1.20;;;20.80;27.60;;;;;;2253473;61;20576;-61
2021/01/30 03:00:34;0.00;0.00;0.62;0.00;0.00;0.62;1.60;1.10;;;20.70;27.40;;;;;;2256386;61;20460;-62
2021/01/30 03:03:18;0.00;0.00;0.62;0.00;0.00;0.62;1.97;1.10;;;20.70;27.40;;;;;;2257448;61;20354;-62
2021/01/30 03:06:09;0.00;0.00;0.62;0.00;0.00;0.62;2.27;1.40;;;20.70;27.40;;;;;;2257593;61;20478;-62
2021/01/30 03:09:02;0.00;0.00;0.62;0.00;0.00;0.62;1.40;0.90;;;20.70;27.30;;;;;;2257506;61;20355;-62
2021/01/30 03:11:58;0.00;0.00;0.62;0.00;0.00;0.62;1.33;0.93;;;20.60;27.20;;;;;;2257405;61;20359;-62
2021/01/30 03:14:48;0.00;0.00;0.62;0.00;0.00;0.62;1.80;1.00;;;20.60;27.10;;;;;;2257483;61;20577;-62
2021/01/30 03:17:33;0.00;0.00;0.62;0.00;0.00;0.62;1.50;1.00;;;20.60;27.00;;;;;;2257718;61;20378;-62
2021/01/30 03:20:19;0.00;0.00;0.62;0.00;0.00;0.62;1.87;1.20;;;20.60;27.00;;;;;;2257409;61;20434;-62
2021/01/30 03:23:04;0.00;0.00;0.62;0.00;0.00;0.62;1.53;1.30;;;20.60;27.00;;;;;;2253758;61;20412;-62
2021/01/30 03:25:50;0.00;0.00;0.62;0.00;0.00;0.62;1.40;1.00;;;20.50;26.90;;;;;;2253096;61;20400;-62
2021/01/30 03:28:36;0.00;0.00;0.62;0.00;0.00;0.62;2.00;1.50;;;20.50;26.90;;;;;;2253520;61;20498;-62
2021/01/30 03:31:21;0.00;0.00;0.62;0.00;0.00;0.62;1.90;1.30;;;20.50;26.90;;;;;;2253784;61;20431;-62
2021/01/30 03:34:07;0.00;0.00;0.62;0.00;0.00;0.62;1.30;1.00;;;20.50;26.90;;;;;;2253085;61;20364;-65
2021/01/30 03:36:52;0.00;0.00;0.62;0.00;0.00;0.62;2.27;1.27;;;20.50;26.90;;;;;;2253305;61;20408;-62
2021/01/30 03:39:37;0.00;0.00;0.62;0.00;0.00;0.62;1.50;1.00;;;20.40;26.90;;;;;;2253695;61;20363;-62
2021/01/30 03:42:22;0.00;0.00;0.62;0.00;0.00;0.62;1.50;1.13;;;20.40;26.90;;;;;;2253457;61;20411;-65
2021/01/30 03:45:12;0.00;0.00;0.62;0.00;0.00;0.62;2.20;1.73;;;20.40;26.90;;;;;;2253098;61;20446;-63
2021/01/30 03:47:57;0.00;0.00;0.62;0.00;0.00;0.62;2.37;1.30;;;20.30;26.80;;;;;;2253334;61;20372;-62
2021/01/30 03:50:41;0.00;0.00;0.62;0.00;0.00;0.62;1.80;1.33;;;20.30;26.80;;;;;;2253127;61;20404;-63
2021/01/30 03:53:26;0.00;0.00;0.62;0.00;0.00;0.62;1.60;1.37;;;20.30;26.80;;;;;;2253732;61;20384;-63
2021/01/30 03:56:11;0.00;0.00;0.62;0.00;0.00;0.62;2.43;1.67;;;20.30;26.80;;;;;;2252913;61;20411;-63
2021/01/30 03:58:55;0.00;0.00;0.62;0.00;0.00;0.62;1.60;1.40;;;20.20;26.80;;;;;;2253297;61;20360;-63
2021/01/30 04:01:40;0.00;0.00;0.62;0.00;0.00;0.62;2.03;1.77;;;20.20;26.70;;;;;;2257658;61;20398;-63
2021/01/30 04:04:25;0.00;0.00;0.62;0.00;0.00;0.62;2.10;1.73;;;20.20;26.70;;;;;;2256916;61;20586;-63
2021/01/30 04:07:09;0.00;0.00;0.62;0.00;0.00;0.62;1.87;1.40;;;20.20;26.70;;;;;;2257313;61;20375;-64
2021/01/30 04:09:54;0.00;0.00;0.62;0.00;0.00;0.62;1.83;1.50;;;20.10;26.70;;;;;;2257193;61;20487;-64
2021/01/30 04:12:41;0.00;0.00;0.62;0.00;0.00;0.62;1.77;1.47;;;20.20;26.80;;;;;;2256894;61;20395;-64
2021/01/30 04:15:31;0.00;0.00;0.62;0.00;0.00;0.62;1.53;1.10;;;20.10;26.70;;;;;;2257532;61;20358;-64
2021/01/30 04:18:16;0.00;0.00;0.62;0.00;0.00;0.62;1.87;1.53;;;20.10;26.70;;;;;;2256350;61;20449;-64
2021/01/30 04:21:01;0.00;0.00;0.62;0.00;0.00;0.62;3.23;1.90;;;20.10;26.70;;;;;;2257266;61;20386;-63
2021/01/30 04:23:47;0.00;0.00;0.62;0.00;0.00;0.62;2.00;1.67;;;20.10;26.70;;;;;;2257721;61;20398;-64
2021/01/30 04:26:32;0.00;0.00;0.62;0.00;0.00;0.62;1.77;1.57;;;20.00;26.60;;;;;;2256782;61;20601;-63
2021/01/30 04:29:17;0.00;0.00;0.62;0.00;0.00;0.62;2.40;1.60;;;20.00;26.60;;;;;;2257429;61;20755;-63
2021/01/30 04:32:01;0.00;0.00;0.62;0.00;0.00;0.62;1.80;1.60;;;20.00;26.60;;;;;;2257298;61;20771;-63
2021/01/30 04:34:47;0.00;0.00;0.62;0.00;0.00;0.62;1.63;1.53;;;20.00;26.70;;;;;;2257518;61;20366;-63
2021/01/30 04:37:32;0.00;0.00;0.62;0.00;0.00;0.62;1.63;1.40;;;20.00;26.60;;;;;;2258279;61;20391;-63
2021/01/30 04:40:24;0.00;0.00;0.62;0.00;0.00;0.62;2.40;1.47;;;19.90;26.50;;;;;;2257423;61;20387;-63
2021/01/30 04:43:29;0.00;0.00;0.62;0.00;0.00;0.62;2.43;1.80;;;19.90;26.50;;;;;;2258190;61;20390;-63
2021/01/30 04:46:27;0.00;0.00;0.62;0.00;0.00;0.62;2.50;1.80;;;19.90;26.50;;;;;;2257928;61;20390;-63
2021/01/30 04:49:21;0.00;0.00;0.62;0.00;0.00;0.62;1.70;1.30;;;19.90;26.50;;;;;;2257968;61;20471;-63
2021/01/30 04:52:11;0.00;0.00;0.62;0.00;0.00;0.62;3.33;1.90;;;19.90;26.50;;;;;;2258259;61;20351;-63
2021/01/30 04:55:13;0.00;0.00;0.62;0.00;0.00;0.62;2.20;1.77;;;19.80;26.50;;;;;;2257328;61;20363;-63
2021/01/30 04:58:10;0.00;0.00;0.62;0.00;0.00;0.62;2.33;1.77;;;19.80;26.40;;;;;;2258026;61;20406;-63
2021/01/30 05:01:15;0.00;0.00;0.62;0.00;0.00;0.62;1.73;1.37;;;19.80;26.40;;;;;;2257988;61;20422;-63
2021/01/30 05:04:12;0.00;0.00;0.62;0.00;0.00;0.62;2.10;1.53;;;19.80;26.40;;;;;;2257904;61;20355;-63
2021/01/30 05:07:17;0.00;0.00;0.62;0.00;0.00;0.62;2.40;1.60;;;19.80;26.30;;;;;;2258023;61;20441;-63
2021/01/30 05:10:14;0.00;0.00;0.62;0.00;0.00;0.62;1.73;1.50;;;19.70;26.40;;;;;;2257517;61;20684;-63
2021/01/30 05:13:03;0.00;0.00;0.62;0.00;0.00;0.62;1.97;1.50;;;19.70;26.40;;;;;;2258037;61;20375;-63
2021/01/30 05:15:52;0.00;0.00;0.62;0.00;0.00;0.62;2.60;1.80;;;19.70;26.40;;;;;;2257849;61;20402;-63
2021/01/30 05:18:41;0.00;0.00;0.62;0.00;0.00;0.62;1.90;1.63;;;19.70;26.80;;;;;;2257690;61;20609;-63
2021/01/30 05:21:39;0.00;0.00;0.62;0.00;0.00;0.62;4.00;3.00;;;19.70;26.30;;;;;;2256853;61;20399;-63
2021/01/30 05:24:28;0.00;0.00;0.62;0.00;0.00;0.62;2.13;1.90;;;19.60;26.20;;;;;;2253296;61;20360;-63
2021/01/30 05:27:52;0.00;0.00;0.62;0.00;0.00;0.62;2.37;2.17;;;19.60;26.20;;;;;;2253768;61;20376;-63
2021/01/30 05:30:54;0.00;0.00;0.62;0.00;0.00;0.62;2.53;2.00;;;19.60;26.60;;;;;;2250969;61;20407;-63
2021/01/30 05:34:05;0.00;0.00;0.62;0.00;0.00;0.62;2.93;2.13;;;19.60;26.10;;;;;;2253977;61;20355;-63
2021/01/30 05:36:58;0.00;0.00;0.62;0.00;0.00;0.62;2.30;1.90;;;19.60;26.10;;;;;;2253995;61;20395;-63
2021/01/30 05:39:59;0.00;0.00;0.62;0.00;0.00;0.62;2.10;1.83;;;19.50;26.00;;;;;;2253268;61;20425;-63
2021/01/30 05:42:56;0.00;0.00;0.62;0.00;0.00;0.62;2.10;1.83;;;19.50;26.00;;;;;;2253722;61;20379;-63
2021/01/30 05:45:45;0.00;0.00;0.62;0.00;0.00;0.62;2.27;1.80;;;19.50;26.00;;;;;;2253468;61;20625;-63
2021/01/30 05:48:35;0.00;0.00;0.62;0.00;0.00;0.62;2.50;1.70;;;19.50;26.00;;;;;;2253858;61;20376;-63
2021/01/30 05:51:33;0.00;0.00;0.62;0.00;0.00;0.62;1.93;1.57;;;19.50;26.00;;;;;;2253883;61;20388;-63
2021/01/30 05:54:18;0.00;0.00;0.62;0.00;0.00;0.62;3.37;2.10;;;19.50;26.10;;;;;;2253224;61;20360;-63
2021/01/30 05:57:04;0.00;0.00;0.62;0.00;0.00;0.62;2.10;1.90;;;19.50;26.00;;;;;;2253613;61;20729;-63
2021/01/30 05:59:52;0.00;0.00;0.62;0.00;0.00;0.62;2.40;2.10;;;19.40;26.00;;;;;;2255494;61;20390;-63
2021/01/30 06:02:37;0.00;0.00;0.62;0.00;0.00;0.62;4.10;2.47;;;19.40;25.90;;;;;;2257336;61;20367;-63
2021/01/30 06:05:22;0.00;0.00;0.62;0.00;0.00;0.62;2.37;2.17;;;19.40;25.90;;;;;;2257348;61;20375;-63
2021/01/30 06:08:22;0.00;0.00;0.62;0.00;0.00;0.62;2.00;1.80;;;19.40;25.90;;;;;;2257605;61;20367;-63
2021/01/30 06:11:10;0.00;0.00;0.62;0.00;0.00;0.62;2.17;1.97;;;19.40;26.00;;;;;;2257594;61;20741;-63
2021/01/30 06:14:00;0.00;0.00;0.62;0.00;0.00;0.62;2.53;1.97;;;19.40;25.90;;;;;;2257768;61;20367;-63
2021/01/30 06:16:48;0.00;0.00;0.62;0.00;0.00;0.62;2.87;2.27;;;19.40;25.90;;;;;;2256803;61;20475;-63
2021/01/30 06:19:35;0.00;0.00;0.62;0.00;0.00;0.62;3.03;2.47;;;19.40;25.90;;;;;;2257474;61;20443;-63
2021/01/30 06:22:22;0.00;0.00;0.62;0.00;0.00;0.62;3.10;2.20;;;19.30;25.80;;;;;;2255215;61;20364;-63
2021/01/30 06:25:31;0.00;0.00;0.62;0.00;0.00;0.62;3.03;1.90;;;19.30;25.80;;;;;;2253395;61;20376;-63
2021/01/30 06:28:23;0.00;0.00;0.62;0.00;0.00;0.62;4.57;3.03;;;19.30;25.80;;;;;;2253699;61;20716;-63
2021/01/30 06:31:18;0.00;0.00;0.62;0.00;0.00;0.62;2.90;2.60;;;19.30;25.80;;;;;;2253099;61;20404;-64
2021/01/30 06:34:19;0.00;0.00;0.62;0.00;0.00;0.62;2.30;2.10;;;19.30;25.80;;;;;;2253390;61;20428;-63
2021/01/30 06:37:11;0.00;0.00;0.62;0.00;0.00;0.62;2.60;2.23;;;19.30;25.80;;;;;;2253704;61;20791;-63
2021/01/30 06:40:07;0.00;0.00;0.62;0.00;0.00;0.62;3.07;2.70;;;19.20;25.70;;;;;;2253373;61;20399;-63
2021/01/30 06:43:01;0.00;0.00;0.62;0.00;0.00;0.62;3.60;2.90;;;19.30;25.70;;;;;;2252895;61;20360;-63
2021/01/30 06:45:46;0.00;0.00;0.62;0.00;0.00;0.62;5.30;3.03;;;19.20;25.60;;;;;;2252684;61;20392;-63
2021/01/30 06:48:37;0.00;0.00;0.62;0.00;0.00;0.62;3.17;2.53;;;19.20;25.60;;;;;;2253344;61;20392;-66
2021/01/30 06:51:31;0.00;0.00;0.62;0.00;0.00;0.62;4.10;3.33;;;19.20;25.70;;;;;;2253598;61;20431;-63
2021/01/30 06:54:21;0.00;0.00;0.62;0.00;0.00;0.62;3.27;2.97;;;19.20;25.70;;;;;;2252585;61;20379;-63
2021/01/30 06:57:12;0.00;0.00;0.62;0.00;0.00;0.62;4.30;2.87;;;19.20;25.70;;;;;;2253115;61;20384;-64
2021/01/30 07:00:01;0.00;0.00;0.62;0.00;0.00;0.62;3.43;2.97;;;19.10;25.60;;;;;;2255442;61;20367;-65
2021/01/30 07:02:48;0.00;0.00;0.62;0.00;0.00;0.62;3.30;3.00;;;19.10;25.50;;;;;;2257446;61;20398;-62
2021/01/30 07:05:46;0.00;0.00;0.62;0.00;0.00;0.62;4.70;3.43;;;19.10;25.50;;;;;;2257543;61;20747;-63
2021/01/30 07:08:48;0.00;0.00;0.62;0.00;0.00;0.62;3.27;2.97;;;19.10;25.60;;;;;;2256934;61;20475;-62
2021/01/30 07:11:52;0.00;0.00;0.62;0.00;0.00;0.62;3.33;3.03;;;19.10;25.70;;;;;;2257346;61;20395;-62
2021/01/30 07:15:07;0.00;0.00;0.62;0.00;0.00;0.62;3.37;2.80;;;19.10;25.70;;;;;;2257337;61;20355;-63
2021/01/30 07:18:09;0.00;0.00;0.62;0.00;0.00;0.62;2.97;2.70;;;19.00;25.60;;;;;;2257181;61;20413;-64
2021/01/30 07:21:20;0.00;0.00;0.62;0.00;0.00;0.62;5.67;3.83;;;19.00;25.70;;;;;;2257563;61;20625;-62
2021/01/30 07:24:21;0.00;0.00;0.62;0.00;0.00;0.62;2.90;2.60;;;19.00;25.80;;;;;;2252902;61;20386;-62
2021/01/30 07:27:14;0.00;0.00;0.62;0.00;0.00;0.62;5.90;2.87;;;19.00;25.80;;;;;;2253302;61;20379;-61
2021/01/30 07:30:06;0.00;0.00;0.62;0.00;0.00;0.62;3.23;2.60;;;19.00;25.80;;;;;;2253040;61;20581;-62
2021/01/30 07:32:57;0.00;0.00;0.62;0.00;0.00;0.62;3.23;2.67;;;19.00;25.90;;;;;;2253061;61;20681;-61
2021/01/30 07:35:55;0.00;0.00;0.62;0.00;0.00;0.62;3.50;3.20;;;19.00;25.80;;;;;;2253662;61;20384;-62
2021/01/30 07:38:47;0.00;0.00;0.62;0.00;0.00;0.62;6.13;2.90;;;19.00;25.70;;;;;;2251505;61;20736;-61
2021/01/30 07:41:48;0.00;0.00;0.62;0.00;0.00;0.62;3.13;2.83;;;19.00;25.60;;;;;;2253087;61;20388;-62
2021/01/30 07:44:58;0.00;0.00;0.62;0.00;0.00;0.62;3.20;2.90;;;19.00;25.60;;;;;;2252944;61;20355;-60
2021/01/30 07:47:52;0.00;0.00;0.62;0.00;0.00;0.62;3.67;3.03;;;19.00;25.50;;;;;;2252892;61;20393;-62
2021/01/30 07:50:42;0.00;0.00;0.62;0.00;0.00;0.62;4.70;3.33;;;18.90;25.40;;;;;;2253633;61;20352;-62
2021/01/30 07:53:28;0.00;0.00;0.62;0.00;0.00;0.62;4.57;2.70;;;19.00;25.50;;;;;;2252502;61;20393;-61
2021/01/30 07:56:32;0.00;0.00;0.62;0.00;0.00;0.62;3.33;3.03;;;19.00;25.50;;;;;;2253194;61;20637;-62
2021/01/30 07:59:34;0.00;0.00;0.62;0.00;0.00;0.62;5.10;3.30;;;18.90;25.50;;;;;;2252648;61;20372;-62
2021/01/30 08:02:55;0.00;0.00;0.62;0.00;0.00;0.62;4.10;3.40;;;19.00;25.60;;;;;;2252861;61;20395;-58
2021/01/30 08:05:50;0.00;0.00;0.62;0.00;0.00;0.62;3.70;3.40;;;19.00;25.60;;;;;;2253209;61;20368;-62
2021/01/30 08:08:40;0.00;0.00;0.62;0.00;0.00;0.62;4.00;3.07;;;18.90;25.50;;;;;;2253206;61;20356;-63
2021/01/30 08:11:32;0.00;0.00;0.62;0.00;0.00;0.62;2.63;2.40;;;18.90;26.20;;;;;;2254082;61;20395;-62
2021/01/30 08:14:53;0.00;0.00;0.62;0.00;0.00;0.62;2.40;2.20;;;18.90;25.80;;;;;;2253309;61;20360;-65
2021/01/30 08:17:55;0.00;0.00;0.62;0.00;0.00;0.62;2.67;2.37;;;18.90;25.80;;;;;;2253947;61;20415;-61
2021/01/30 08:20:45;0.00;0.00;0.62;0.00;0.00;0.62;2.77;2.40;;;18.90;25.80;;;;;;2254199;61;20383;-59
2021/01/30 08:23:49;0.00;0.00;0.62;0.00;0.00;0.62;2.73;1.90;;;18.90;25.80;;;;;;2253762;61;20723;-61
2021/01/30 08:26:38;0.00;0.00;0.62;0.00;0.00;0.62;3.33;2.20;;;18.90;25.80;;;;;;2253754;61;20419;-62
2021/01/30 08:29:28;0.00;0.00;0.62;0.00;0.00;0.62;2.80;1.90;;;18.90;25.80;;;;;;2253587;61;20352;-58
2021/01/30 08:32:56;0.00;0.00;0.62;0.00;0.00;0.62;3.33;2.20;;;18.90;25.80;;;;;;2253941;61;20740;-62
2021/01/30 08:35:51;0.00;0.00;0.62;0.00;0.00;0.62;2.60;2.00;;;18.90;25.80;;;;;;2242458;61;20421;-63
2021/01/30 08:38:38;0.00;0.00;0.62;0.00;0.00;0.62;2.20;1.80;;;18.90;25.80;;;;;;2244861;61;20358;-63
2021/01/30 08:41:49;0.00;0.00;0.62;0.00;0.00;0.62;2.53;1.93;;;18.90;25.80;;;;;;2253946;61;20391;-62
2021/01/30 08:44:45;0.00;0.00;0.62;0.00;0.00;0.62;2.10;1.90;;;18.90;25.80;;;;;;2253325;61;20712;-63
2021/01/30 08:47:32;0.00;0.00;0.62;0.00;0.00;0.62;2.43;1.50;;;18.90;25.80;;;;;;2253788;61;20384;-63
2021/01/30 08:50:42;0.00;0.00;0.62;0.00;0.00;0.62;2.90;1.87;;;18.90;25.80;;;;;;2253954;61;20451;-62
2021/01/30 08:53:33;0.00;0.00;0.62;0.00;0.00;0.62;1.70;1.40;;;18.90;25.90;;;;;;2253752;61;20427;-62
2021/01/30 08:56:49;0.00;0.00;0.62;0.00;0.00;0.62;2.37;1.57;;;19.00;25.90;;;;;;2253963;61;20588;-62
2021/01/30 08:59:48;0.00;0.00;0.62;0.00;0.00;0.62;3.10;1.83;;;18.90;26.40;;;;;;2253209;61;20368;-63
2021/01/30 09:02:53;0.00;0.00;0.62;0.00;0.00;0.62;2.20;1.50;;;19.00;25.90;;;;;;2253854;61;20396;-63
2021/01/30 09:05:43;0.00;0.00;0.62;0.00;0.00;0.62;1.63;1.10;;;18.90;25.80;;;;;;2253595;61;20384;-64
2021/01/30 09:09:01;0.00;0.00;0.62;0.00;0.00;0.62;2.13;1.33;;;18.90;25.80;;;;;;2254021;61;20443;-62
2021/01/30 09:11:48;0.00;0.00;0.62;0.00;0.00;0.62;1.77;1.30;;;19.00;25.90;;;;;;2254055;61;20345;-62
2021/01/30 09:14:39;0.00;0.00;0.62;0.00;0.00;0.62;2.00;1.30;;;19.00;25.90;;;;;;2253250;61;20360;-62
2021/01/30 09:17:43;0.00;0.00;0.62;0.00;0.00;0.62;3.00;1.17;;;18.90;25.80;;;;;;2253722;61;20457;-62
2021/01/30 09:20:39;0.00;0.00;0.62;0.00;0.00;0.62;1.40;1.10;;;19.00;25.90;;;;;;2253675;61;20380;-62
2021/01/30 09:23:53;0.00;0.00;0.62;0.00;0.00;0.62;2.43;1.17;;;19.00;25.90;;;;;;2488138;53;20355;-62
2021/01/30 09:26:52;0.00;0.00;0.62;0.00;0.00;0.62;1.93;1.47;;;19.00;25.90;;;;;;2253982;61;20379;-62
2021/01/30 09:29:40;0.00;0.00;0.62;0.00;0.00;0.62;1.43;1.27;;;19.00;25.90;;;;;;2253356;61;20443;-62
2021/01/30 09:32:41;0.00;0.00;0.62;0.00;0.00;0.62;1.60;1.10;;;19.00;25.90;;;;;;2253610;61;20400;-62
2021/01/30 09:35:32;0.00;0.00;0.62;0.00;0.00;0.62;1.63;1.33;;;19.00;25.90;;;;;;2253496;61;20849;-62
2021/01/30 09:38:25;0.00;0.00;0.62;0.00;0.00;0.62;2.27;1.07;;;19.00;25.90;;;;;;2253598;61;20395;-62
2021/01/30 09:41:20;0.00;0.00;0.62;0.00;0.00;0.62;1.30;1.10;;;19.00;25.90;;;;;;2253971;61;20443;-62
2021/01/30 09:44:19;0.00;0.00;0.62;0.00;0.00;0.62;1.87;1.00;;;19.00;25.90;;;;;;2253083;61;20356;-62
2021/01/30 09:47:10;0.00;0.00;0.62;0.00;0.00;0.62;1.20;0.97;;;19.00;25.90;;;;;;2253501;61;20396;-62
2021/01/30 09:49:59;0.00;0.00;0.62;0.00;0.00;0.62;2.07;1.37;;;19.00;25.90;;;;;;2253640;61;20360;-62
2021/01/30 09:52:56;0.00;0.00;0.62;0.00;0.00;0.62;1.63;1.10;;;19.10;26.00;;;;;;2253911;61;20435;-62
2021/01/30 09:55:41;0.00;0.00;0.62;0.00;0.00;0.62;2.00;1.33;;;19.10;26.00;;;;;;2253831;61;20388;-62
2021/01/30 09:58:26;0.00;0.00;0.62;0.00;0.00;0.62;1.47;1.10;;;19.10;26.00;;;;;;2253277;61;20388;-62
2021/01/30 10:01:24;0.00;0.00;0.62;0.00;0.00;0.62;1.37;1.00;;;19.10;26.00;;;;;;2257554;61;20383;-62
2021/01/30 10:04:21;0.00;0.00;0.62;0.00;0.00;0.62;1.90;1.30;;;19.10;26.00;;;;;;2257703;61;20727;-62
2021/01/30 10:07:09;0.00;0.00;0.62;0.00;0.00;0.62;1.90;1.40;;;19.10;26.00;;;;;;2257409;61;20383;-62
2021/01/30 10:09:54;0.00;0.00;0.62;0.00;0.00;0.62;1.63;1.00;;;19.10;26.00;;;;;;2257513;61;20478;-62
2021/01/30 10:12:39;0.00;0.00;0.62;0.00;0.00;0.62;1.40;0.93;;;19.10;26.00;;;;;;2257299;61;20402;-62
2021/01/30 10:15:31;0.00;0.00;0.62;0.00;0.00;0.62;1.50;1.10;;;19.10;26.00;;;;;;2257432;61;20370;-61
2021/01/30 10:18:20;0.00;0.00;0.62;0.00;0.00;0.62;1.23;0.93;;;19.20;26.00;;;;;;2257795;61;20387;-62
2021/01/30 10:21:07;0.00;0.00;0.62;0.00;0.00;0.62;1.70;1.30;;;19.20;26.10;;;;;;2256784;61;20429;-61
2021/01/30 10:23:53;0.00;0.00;0.62;0.00;0.00;0.62;1.20;0.90;;;19.20;26.00;;;;;;2253593;61;20375;-62
2021/01/30 10:26:38;0.00;0.00;0.62;0.00;0.00;0.62;1.40;1.07;;;19.20;26.00;;;;;;2253649;61;20456;-62
2021/01/30 10:29:25;0.00;0.00;0.62;0.00;0.00;0.62;1.57;1.30;;;19.20;26.00;;;;;;2253455;61;20588;-62
2021/01/30 10:32:15;0.00;0.00;0.62;0.00;0.00;0.62;1.30;0.90;;;19.20;26.00;;;;;;2253614;61;20696;-62
2021/01/30 10:35:05;0.00;0.00;0.62;0.00;0.00;0.62;1.50;1.00;;;19.20;26.00;;;;;;2252965;61;20340;-61
2021/01/30 10:37:53;0.00;0.00;0.62;0.00;0.00;0.62;1.77;1.13;;;19.20;26.00;;;;;;2253019;61;20720;-62
2021/01/30 10:40:42;0.00;0.00;0.62;0.00;0.00;0.62;1.70;1.27;;;19.20;26.00;;;;;;2253599;61;20794;-62
2021/01/30 10:43:32;0.00;0.00;0.62;0.00;0.00;0.62;1.50;1.00;;;19.20;26.00;;;;;;2253276;61;20395;-61
2021/01/30 10:46:33;0.00;0.00;0.62;0.00;0.00;0.62;1.77;1.20;;;19.30;26.10;;;;;;2253231;61;20436;-62
2021/01/30 10:49:22;0.00;0.00;0.62;0.00;0.00;0.62;1.70;1.30;;;19.20;26.00;;;;;;2253096;61;20356;-61
2021/01/30 10:52:13;0.00;0.00;0.62;0.00;0.00;0.62;1.43;1.10;;;19.30;26.10;;;;;;2253649;61;20433;-62
2021/01/30 10:55:22;0.00;0.00;0.62;0.00;0.00;0.62;1.77;1.13;;;19.30;26.10;;;;;;2253578;61;20621;-62
2021/01/30 10:58:13;0.00;0.00;0.62;0.00;0.00;0.62;1.60;1.00;;;19.30;26.10;;;;;;2253040;61;20435;-62
2021/01/30 11:01:04;0.00;0.00;0.62;0.00;0.00;0.62;1.63;1.10;;;19.30;26.10;;;;;;2256987;61;20387;-62
2021/01/30 11:03:54;0.00;0.00;0.62;0.00;0.00;0.62;1.70;1.20;;;19.30;26.10;;;;;;2257233;61;20355;-62
2021/01/30 11:06:43;0.00;0.00;0.62;0.00;0.00;0.62;1.60;1.10;;;19.30;26.10;;;;;;2257314;61;20434;-61
2021/01/30 11:09:32;0.00;0.00;0.62;0.00;0.00;0.62;1.80;1.20;;;19.30;26.10;;;;;;2257768;61;20355;-61
2021/01/30 11:12:24;0.00;0.00;0.62;0.00;0.00;0.62;1.40;1.13;;;19.30;26.10;;;;;;2256826;61;20363;-61
2021/01/30 11:15:18;0.00;0.00;0.62;0.00;0.00;0.62;1.37;0.90;;;19.30;26.10;;;;;;2257173;61;20431;-62
2021/01/30 11:18:33;0.00;0.00;0.62;0.00;0.00;0.62;1.97;1.17;;;19.30;26.10;;;;;;2257624;61;20359;-61
2021/01/30 11:21:32;0.00;0.00;0.62;0.00;0.00;0.62;1.47;0.90;;;19.30;26.10;;;;;;2257267;61;20447;-62